Adairsville, Georgia
Current Conditions -  °F | °C
As of 12:53 PM on Thursday 29 Jan 2015 (Local Time) from KRMG Reporting Station
Scattered Clouds Scattered Clouds  
Wind Chill: 53°   Ceiling: Unl
Heat Index: 53°   Visibility: 10mi
Dew Point: 33°   Wind: 15mph
Humidity: 47%   Direction: 190°S
Pressure: 30.16"   Gusts: 21mph
Location:  34.37°N, 84.93°W
Report Text: KRMG 291753Z AUTO 19013G18KT 10SM SCT110 12/01 A3016 RMK AO2 PRESFR SLP211 T01170006 10117 21022 58036
Loading
Personal Weather Stations






























Interactive Weather Map New forecast layout! Learn more

10-Day Weather Forecast

Advertisements
Track Severe Weather on mobile